In Rescue
 
Open Full Screen Window  High Contrast Mode
Wind Gusting 00 knots
09
July 23, 2019 12:16 AM CDT
Weather Information
Wind Direction
  290 °
Wind Speed
  09 kt (10 mph)
Wind Gust
  00 kt (0 mph)
Altimeter
30.17 in
Visibility
10 SM
Temperature
20° C
68° F
Dewpoint
13° C
55° F
Humidity
64%
1hr Rain Fall
00.00 in.
24hr Rain Fall
00.00 in.
Sky Condition
Missing
VFR

METAR KFGN 230516Z AUTO 29009KT 10SM 20/13 A3017 RMK AO2

FAA Disclaimer: The data displayed is for advisory purposes only and is not to be used for flight planning or operations.
Missing Cloud Data